Eastleigh, United Kingdom
Current Conditions -  °F | °C
As of 12:20 PM on Tuesday 27 Jan 2015 (Local Time) from EGHI Reporting Station
Few Clouds Few Clouds  
Wind Chill: 42°   Ceiling: Unl
Heat Index: 45°   Visibility: 6mi
Dew Point: 37°   Wind: 5mph
Humidity: 76%   Direction: 280°W
Pressure: 30.36"   Gusts: NA
Location:  50.99°N, 1.37°W
Report Text: EGHI 271220Z 28004KT 240V310 9999 FEW025 07/03 Q1028
Loading
Personal Weather Stations






























Interactive Weather Map New forecast layout! Learn more

10-Day Weather Forecast

Advertisements
Track Severe Weather on mobile